createdAt,value
2024-03-01T00:02:33.551Z,88.14
2024-03-01T00:05:36.593Z,88.89
2024-03-01T00:08:39.730Z,88.25
2024-03-01T00:11:42.831Z,88.35
2024-03-01T00:14:46.088Z,88.39
2024-03-01T00:17:49.199Z,88.91
2024-03-01T00:20:52.242Z,88.75
2024-03-01T00:23:55.337Z,89.13
2024-03-01T00:26:58.642Z,88.79
2024-03-01T00:30:01.864Z,88.76
2024-03-01T00:33:05.404Z,89.36
2024-03-01T00:36:09.369Z,89.51
2024-03-01T00:39:13.126Z,89.04
2024-03-01T00:42:16.345Z,89.22
2024-03-01T00:45:19.417Z,89.17
2024-03-01T00:48:22.813Z,89.21
2024-03-01T00:51:25.902Z,89.18
2024-03-01T00:54:28.736Z,89.16
2024-03-01T00:57:32.444Z,88.99
2024-03-01T01:00:36.247Z,88.99
2024-03-01T01:03:39.931Z,89.15
2024-03-01T01:06:43.024Z,89.54
2024-03-01T01:09:45.755Z,89.23
2024-03-01T01:12:48.803Z,88.80
2024-03-01T01:15:51.884Z,88.41
2024-03-01T01:18:55.205Z,88.10
2024-03-01T01:21:58.283Z,88.19
2024-03-01T01:25:01.917Z,88.03
2024-03-01T01:28:05.279Z,87.28
2024-03-01T01:31:09.551Z,87.16
2024-03-01T01:34:12.732Z,86.98
2024-03-01T01:37:16.230Z,87.20
2024-03-01T01:40:19.423Z,87.39
2024-03-01T01:43:22.546Z,87.25
2024-03-01T01:46:25.406Z,87.50
2024-03-01T01:49:30.133Z,87.42
2024-03-01T01:52:33.440Z,88.02
2024-03-01T01:55:37.709Z,87.86
2024-03-01T01:58:42.577Z,88.36
2024-03-01T02:01:46.081Z,88.53
2024-03-01T02:04:49.851Z,88.40
2024-03-01T02:07:53.367Z,88.48
2024-03-01T02:10:56.801Z,87.78
2024-03-01T02:13:59.967Z,87.78
2024-03-01T02:17:03.186Z,88.31
2024-03-01T02:20:08.055Z,88.25
2024-03-01T02:23:22.742Z,87.70
2024-03-01T02:26:25.920Z,86.32
2024-03-01T02:29:28.972Z,85.64
2024-03-01T02:32:31.954Z,85.23
2024-03-01T02:35:35.089Z,85.48
2024-03-01T02:38:38.196Z,85.32
2024-03-01T02:41:41.380Z,85.89
2024-03-01T02:44:44.238Z,85.73
2024-03-01T02:47:47.153Z,85.43
2024-03-01T02:50:50.180Z,85.49
2024-03-01T02:53:53.926Z,85.57
2024-03-01T02:56:56.742Z,85.55
2024-03-01T03:00:00.114Z,85.54
2024-03-01T03:03:02.905Z,85.94
2024-03-01T03:06:06.023Z,85.49
2024-03-01T03:09:10.880Z,84.96
2024-03-01T03:12:14.068Z,84.67
2024-03-01T03:15:17.868Z,84.37
2024-03-01T03:18:21.277Z,84.36
2024-03-01T03:21:24.777Z,84.38
2024-03-01T03:24:27.846Z,84.35
2024-03-01T03:27:30.902Z,84.13
2024-03-01T03:30:33.860Z,84.57
2024-03-01T03:33:37.193Z,84.59
2024-03-01T03:36:40.363Z,84.66
2024-03-01T03:39:43.518Z,84.83
2024-03-01T03:42:46.590Z,84.66
2024-03-01T03:45:49.707Z,84.82
2024-03-01T03:48:52.902Z,85.24
2024-03-01T03:51:56.034Z,85.10
2024-03-01T03:54:58.886Z,84.55
2024-03-01T03:58:01.703Z,84.68
2024-03-01T04:01:08.358Z,84.30
2024-03-01T04:04:11.352Z,84.56
2024-03-01T04:07:14.452Z,84.92
2024-03-01T04:10:17.304Z,84.80
2024-03-01T04:13:20.152Z,85.51
2024-03-01T04:16:23.231Z,85.33
2024-03-01T04:19:26.324Z,85.45
2024-03-01T04:22:29.464Z,85.76
2024-03-01T04:25:33.465Z,85.20
2024-03-01T04:28:40.555Z,84.95
2024-03-01T04:31:49.968Z,85.08
2024-03-01T04:34:52.702Z,85.75
2024-03-01T04:37:55.479Z,85.70
2024-03-01T04:40:58.283Z,85.33
2024-03-01T04:44:01.008Z,85.52
2024-03-01T04:47:03.913Z,85.17
2024-03-01T04:50:07.815Z,85.57
2024-03-01T04:53:10.938Z,85.31
2024-03-01T04:56:13.900Z,85.87
2024-03-01T04:59:16.994Z,85.78
2024-03-01T05:02:20.070Z,85.57
2024-03-01T05:05:24.272Z,84.97
2024-03-01T05:08:29.084Z,85.46
2024-03-01T05:11:37.192Z,86.13
2024-03-01T05:14:42.087Z,86.14
2024-03-01T05:17:46.489Z,86.24
2024-03-01T05:20:49.352Z,86.23
2024-03-01T05:23:52.754Z,86.44
2024-03-01T05:26:55.839Z,86.39
2024-03-01T05:29:58.927Z,86.47
2024-03-01T05:33:02.799Z,86.32
2024-03-01T05:36:07.242Z,86.06
2024-03-01T05:39:19.762Z,86.07
2024-03-01T05:42:24.593Z,85.73
2024-03-01T05:45:28.730Z,86.36
2024-03-01T05:48:31.824Z,86.46
2024-03-01T05:51:34.620Z,86.53
2024-03-01T05:54:38.396Z,86.25
2024-03-01T05:57:42.879Z,85.78
2024-03-01T06:00:47.022Z,85.54
2024-03-01T06:03:50.357Z,85.61
2024-03-01T06:06:53.502Z,85.58
2024-03-01T06:09:56.459Z,86.04
2024-03-01T06:13:00.860Z,85.76
2024-03-01T06:16:04.663Z,85.76
2024-03-01T06:19:07.528Z,85.95
2024-03-01T06:22:10.793Z,86.08
2024-03-01T06:25:13.760Z,86.33
2024-03-01T06:28:18.008Z,86.11
2024-03-01T06:31:21.335Z,86.24
2024-03-01T06:34:24.620Z,86.44
2024-03-01T06:37:27.721Z,86.46
2024-03-01T06:40:35.761Z,85.82
2024-03-01T06:43:38.827Z,85.31
2024-03-01T06:46:41.951Z,85.42
2024-03-01T06:49:45.113Z,85.27
2024-03-01T06:52:48.384Z,85.84
2024-03-01T06:55:51.644Z,86.18
2024-03-01T06:58:55.027Z,85.27
2024-03-01T07:01:58.305Z,85.58
2024-03-01T07:05:01.925Z,85.01
2024-03-01T07:08:05.295Z,85.54
2024-03-01T07:11:09.954Z,85.14
2024-03-01T07:14:13.941Z,84.88
2024-03-01T07:17:16.828Z,84.76
2024-03-01T07:20:19.888Z,85.11
2024-03-01T07:23:22.826Z,85.03
2024-03-01T07:26:25.987Z,84.67
2024-03-01T07:29:30.218Z,84.45
2024-03-01T07:32:37.172Z,85.06
2024-03-01T07:35:40.790Z,84.07
2024-03-01T07:38:46.460Z,82.88
2024-03-01T07:41:51.455Z,83.25
2024-03-01T07:44:57.037Z,83.27
2024-03-01T07:48:00.619Z,83.97
2024-03-01T07:51:04.844Z,83.26
2024-03-01T07:54:10.465Z,84.00
2024-03-01T07:57:13.407Z,83.26
2024-03-01T08:00:16.573Z,82.30
2024-03-01T08:03:19.773Z,82.15
2024-03-01T08:06:23.132Z,83.34
2024-03-01T08:09:33.922Z,83.52
2024-03-01T08:12:36.970Z,83.84
2024-03-01T08:15:42.055Z,83.74
2024-03-01T08:18:45.101Z,83.31
2024-03-01T08:21:49.133Z,83.06
2024-03-01T08:24:56.424Z,83.64
2024-03-01T08:27:59.518Z,83.53
2024-03-01T08:36:00.188Z,82.38
2024-03-01T08:44:56.509Z,82.32
2024-03-01T08:48:12.852Z,80.68
2024-03-01T08:51:19.017Z,80.73
2024-03-01T08:59:42.326Z,81.96
2024-03-01T09:02:48.104Z,81.53
2024-03-01T09:05:56.971Z,81.87
2024-03-01T09:09:01.618Z,80.91
2024-03-01T09:12:09.186Z,81.59
2024-03-01T09:15:22.962Z,81.90
2024-03-01T09:18:45.919Z,82.65
2024-03-01T09:21:49.799Z,81.68
2024-03-01T09:24:53.200Z,82.14
2024-03-01T09:27:57.966Z,81.74
2024-03-01T09:31:00.969Z,82.54
2024-03-01T09:34:08.384Z,81.97
2024-03-01T09:37:15.592Z,81.70
2024-03-01T09:40:39.441Z,82.47
2024-03-01T09:43:49.626Z,82.57
2024-03-01T09:47:25.814Z,81.41
2024-03-01T09:50:59.705Z,82.33
2024-03-01T09:54:18.260Z,80.96
2024-03-01T09:57:58.255Z,80.53
2024-03-01T10:01:13.329Z,82.49
2024-03-01T10:04:45.742Z,77.74
2024-03-01T10:07:54.485Z,76.54
2024-03-01T10:11:16.525Z,76.26
2024-03-01T10:14:25.324Z,74.69
2024-03-01T10:17:41.374Z,74.17
2024-03-01T10:21:21.465Z,74.96
2024-03-01T10:24:53.308Z,74.81
2024-03-01T10:28:19.869Z,75.24
2024-03-01T10:31:57.474Z,75.84
2024-03-01T10:35:17.342Z,76.10
2024-03-01T10:38:30.868Z,76.02
2024-03-01T10:42:05.253Z,77.16
2024-03-01T10:45:19.585Z,75.86
2024-03-01T10:48:28.135Z,75.43
2024-03-01T10:51:34.021Z,74.75
2024-03-01T10:54:37.250Z,74.66
2024-03-01T10:57:55.119Z,75.05
2024-03-01T11:01:35.973Z,75.38
2024-03-01T11:04:45.440Z,75.28
2024-03-01T11:07:57.729Z,74.56
2024-03-01T11:11:03.774Z,74.02
2024-03-01T11:14:11.344Z,74.06
2024-03-01T11:17:16.411Z,74.44
2024-03-01T11:20:43.111Z,74.77
2024-03-01T11:23:58.328Z,74.70
2024-03-01T11:27:05.601Z,75.79
2024-03-01T11:30:13.102Z,74.00
2024-03-01T11:33:20.737Z,73.64
2024-03-01T11:36:48.140Z,74.19
2024-03-01T11:39:55.591Z,73.71
2024-03-01T11:43:14.841Z,72.69
2024-03-01T11:47:08.075Z,74.04
2024-03-01T11:50:32.227Z,73.69
2024-03-01T11:53:57.801Z,73.06
2024-03-01T11:57:30.905Z,73.79
2024-03-01T12:00:49.089Z,73.91
2024-03-01T12:04:04.461Z,73.30
2024-03-01T12:07:20.547Z,71.91
2024-03-01T12:10:28.087Z,71.43
2024-03-01T12:13:35.778Z,71.40
2024-03-01T12:17:08.316Z,70.83
2024-03-01T12:20:15.782Z,72.76
2024-03-01T12:23:42.758Z,70.89
2024-03-01T12:27:20.900Z,71.74
2024-03-01T12:30:33.107Z,70.99
2024-03-01T12:34:13.472Z,70.32
2024-03-01T12:37:28.690Z,70.32
2024-03-01T12:40:38.906Z,70.98
2024-03-01T12:43:48.183Z,70.47
2024-03-01T12:47:12.182Z,70.97
2024-03-01T12:50:31.812Z,71.28
2024-03-01T12:53:53.212Z,71.59
2024-03-01T12:57:15.740Z,72.73
2024-03-01T13:00:26.868Z,73.15
2024-03-01T13:03:51.064Z,72.52
2024-03-01T13:06:54.921Z,72.17
2024-03-01T13:10:01.429Z,72.36
2024-03-01T13:13:16.109Z,73.29
2024-03-01T13:16:20.333Z,74.17
2024-03-01T13:19:32.163Z,74.69
2024-03-01T13:22:43.291Z,74.27
2024-03-01T13:26:04.270Z,74.08
2024-03-01T13:29:17.065Z,73.79
2024-03-01T13:32:36.130Z,73.37
2024-03-01T13:35:43.837Z,73.03
2024-03-01T13:39:11.930Z,72.53
2024-03-01T13:42:35.723Z,71.72
2024-03-01T13:45:44.037Z,71.17
2024-03-01T13:48:51.201Z,72.00
2024-03-01T13:51:56.045Z,70.73
2024-03-01T13:54:59.404Z,70.35
2024-03-01T13:58:02.452Z,70.22
2024-03-01T14:01:07.279Z,69.67
2024-03-01T14:04:10.390Z,69.86
2024-03-01T14:07:17.511Z,69.63
2024-03-01T14:10:23.088Z,70.60
2024-03-01T14:13:27.334Z,70.70
2024-03-01T14:16:33.977Z,69.61
2024-03-01T14:19:37.214Z,70.16
2024-03-01T14:22:43.999Z,70.26
2024-03-01T14:25:47.977Z,70.67
2024-03-01T14:28:51.098Z,70.15
2024-03-01T14:32:05.022Z,70.33
2024-03-01T14:35:25.628Z,70.73
2024-03-01T14:38:28.863Z,71.42
2024-03-01T14:41:41.595Z,71.26
2024-03-01T14:44:45.436Z,72.20
2024-03-01T14:47:58.938Z,70.78
2024-03-01T14:51:06.185Z,71.43
2024-03-01T14:54:26.074Z,70.91
2024-03-01T14:57:29.163Z,69.91
2024-03-01T15:00:33.708Z,70.85
2024-03-01T15:03:37.699Z,71.05
2024-03-01T15:06:40.761Z,69.93
2024-03-01T15:09:45.376Z,70.53
2024-03-01T15:12:59.535Z,69.85
2024-03-01T15:16:06.931Z,70.51
2024-03-01T15:19:19.622Z,70.29
2024-03-01T15:22:24.021Z,70.53
2024-03-01T15:25:26.924Z,71.11
2024-03-01T15:28:30.158Z,71.64
2024-03-01T15:31:32.936Z,71.31
2024-03-01T15:34:36.169Z,73.39
2024-03-01T15:37:40.306Z,72.88
2024-03-01T15:40:45.779Z,73.35
2024-03-01T15:43:50.781Z,73.86
2024-03-01T15:46:53.820Z,73.44
2024-03-01T15:49:56.917Z,75.43
2024-03-01T15:53:01.026Z,74.40
2024-03-01T15:56:08.814Z,74.20
2024-03-01T15:59:11.691Z,74.72
2024-03-01T16:02:24.255Z,74.37
2024-03-01T16:05:27.447Z,75.25
2024-03-01T16:08:30.332Z,74.93
2024-03-01T16:11:33.166Z,75.39
2024-03-01T16:14:38.166Z,75.53
2024-03-01T16:17:41.884Z,74.92
2024-03-01T16:20:45.051Z,74.91
2024-03-01T16:23:51.925Z,74.85
2024-03-01T16:26:55.448Z,74.58
2024-03-01T16:30:00.951Z,74.99
2024-03-01T16:33:04.573Z,74.92
2024-03-01T16:36:10.317Z,74.61
2024-03-01T16:39:35.448Z,75.32
2024-03-01T16:42:46.748Z,75.42
2024-03-01T16:45:49.864Z,75.07
2024-03-01T16:48:56.297Z,76.78
2024-03-01T16:51:59.602Z,76.94
2024-03-01T16:55:04.888Z,76.85
2024-03-01T16:58:11.558Z,77.13
2024-03-01T17:01:34.449Z,76.82
2024-03-01T17:04:38.011Z,77.29
2024-03-01T17:07:48.854Z,78.55
2024-03-01T17:10:52.169Z,78.74
2024-03-01T17:13:58.467Z,79.54
2024-03-01T17:17:01.547Z,78.67
2024-03-01T17:20:08.387Z,79.32
2024-03-01T17:23:11.685Z,79.59
2024-03-01T17:26:14.801Z,80.22
2024-03-01T17:29:18.002Z,80.24
2024-03-01T17:32:21.215Z,80.03
2024-03-01T17:35:24.353Z,80.12
2024-03-01T17:38:27.479Z,80.81
2024-03-01T17:41:30.629Z,81.02
2024-03-01T17:44:33.752Z,81.10
2024-03-01T17:47:36.758Z,80.88
2024-03-01T17:50:39.836Z,82.13
2024-03-01T17:53:42.868Z,81.30
2024-03-01T17:56:46.360Z,80.76
2024-03-01T17:59:49.405Z,80.96
2024-03-01T18:02:52.555Z,81.34
2024-03-01T18:06:00.888Z,81.43
2024-03-01T18:09:03.738Z,81.58
2024-03-01T18:12:06.936Z,81.56
2024-03-01T18:15:09.900Z,82.11
2024-03-01T18:18:14.310Z,81.89
2024-03-01T18:21:17.297Z,82.12
2024-03-01T18:24:20.467Z,81.95
2024-03-01T18:27:23.279Z,82.41
2024-03-01T18:30:26.055Z,82.42
2024-03-01T18:33:29.416Z,82.43
2024-03-01T18:36:32.499Z,82.58
2024-03-01T18:39:35.553Z,82.92
2024-03-01T18:42:38.701Z,82.94
2024-03-01T18:45:41.548Z,83.16
2024-03-01T18:48:47.763Z,83.26
2024-03-01T18:51:50.957Z,83.92
2024-03-01T18:54:54.307Z,84.26
2024-03-01T18:57:57.373Z,83.81
2024-03-01T19:01:10.293Z,84.49
2024-03-01T19:04:18.194Z,84.56
2024-03-01T19:07:21.677Z,85.38
2024-03-01T19:10:26.518Z,85.86
2024-03-01T19:13:31.329Z,86.28
2024-03-01T19:16:34.842Z,86.38
2024-03-01T19:19:38.472Z,86.60
2024-03-01T19:22:41.469Z,87.02
2024-03-01T19:25:47.187Z,86.90
2024-03-01T19:28:50.479Z,86.99
2024-03-01T19:31:55.410Z,87.30
2024-03-01T19:34:58.328Z,87.42
2024-03-01T19:38:01.248Z,87.80
2024-03-01T19:41:04.424Z,87.69
2024-03-01T19:44:07.615Z,87.48
2024-03-01T19:47:11.953Z,87.70
2024-03-01T19:50:14.966Z,87.96
2024-03-01T19:53:18.202Z,88.22
2024-03-01T19:56:21.268Z,87.86
2024-03-01T19:59:26.597Z,87.86
2024-03-01T20:02:29.634Z,88.14
2024-03-01T20:05:32.504Z,88.86
2024-03-01T20:08:35.237Z,89.70
2024-03-01T20:11:38.084Z,89.71
2024-03-01T20:14:40.992Z,89.32
2024-03-01T20:17:44.201Z,89.47
2024-03-01T20:20:47.261Z,89.44
2024-03-01T20:23:50.969Z,89.39
2024-03-01T20:26:53.741Z,89.69
2024-03-01T20:29:56.815Z,89.78
2024-03-01T20:33:03.251Z,90.14
2024-03-01T20:36:06.313Z,90.47
2024-03-01T20:39:10.358Z,91.05
2024-03-01T20:42:13.607Z,90.88
2024-03-01T20:45:16.509Z,90.78
2024-03-01T20:48:19.715Z,90.43
2024-03-01T20:51:24.841Z,91.06
2024-03-01T20:54:27.700Z,91.71
2024-03-01T20:57:33.724Z,91.55
2024-03-01T21:00:36.553Z,91.46
2024-03-01T21:03:39.574Z,91.56
2024-03-01T21:06:42.487Z,92.23
2024-03-01T21:09:45.265Z,92.37
2024-03-01T21:12:49.067Z,92.12
2024-03-01T21:15:52.587Z,92.13
2024-03-01T21:18:55.469Z,91.78
2024-03-01T21:25:06.980Z,92.53
2024-03-01T21:28:09.770Z,91.80
2024-03-01T21:31:13.659Z,92.46
2024-03-01T21:34:18.380Z,92.94
2024-03-01T21:37:21.425Z,93.05
2024-03-01T21:40:28.030Z,93.62
2024-03-01T21:43:30.838Z,93.72
2024-03-01T21:46:33.737Z,93.66
2024-03-01T21:49:37.296Z,93.98
2024-03-01T21:52:40.998Z,94.94
2024-03-01T21:55:44.105Z,95.15
2024-03-01T21:58:48.046Z,94.54
2024-03-01T22:01:50.894Z,93.22
2024-03-01T22:04:59.480Z,93.77
2024-03-01T22:08:10.500Z,94.63
2024-03-01T22:11:17.137Z,95.10
2024-03-01T22:14:21.033Z,94.98
2024-03-01T22:17:25.687Z,95.80
2024-03-01T22:20:28.531Z,96.05
2024-03-01T22:23:31.431Z,95.50
2024-03-01T22:26:35.807Z,95.21
2024-03-01T22:29:38.991Z,95.38
2024-03-01T22:32:43.019Z,96.63
2024-03-01T22:35:47.133Z,96.17
2024-03-01T22:38:50.180Z,95.30
2024-03-01T22:41:52.982Z,95.17
2024-03-01T22:44:56.185Z,95.21
2024-03-01T22:47:59.252Z,95.79
2024-03-01T22:51:04.111Z,95.46
2024-03-01T22:54:10.382Z,95.16
2024-03-01T22:57:15.483Z,95.49
2024-03-01T23:00:24.042Z,95.55
2024-03-01T23:03:42.098Z,95.70
2024-03-01T23:06:45.462Z,96.26
2024-03-01T23:09:48.819Z,96.42
2024-03-01T23:12:52.466Z,97.05
2024-03-01T23:15:55.640Z,97.21
2024-03-01T23:18:58.751Z,96.53
2024-03-01T23:22:02.173Z,96.55
2024-03-01T23:25:05.496Z,97.94
2024-03-01T23:28:10.724Z,97.05
2024-03-01T23:31:13.581Z,96.21
2024-03-01T23:34:17.297Z,95.92
2024-03-01T23:37:20.526Z,96.36
2024-03-01T23:40:25.299Z,96.50
2024-03-01T23:43:32.344Z,96.95
2024-03-01T23:46:35.131Z,95.97
2024-03-01T23:49:38.850Z,96.02
2024-03-01T23:52:42.203Z,96.30
2024-03-01T23:55:47.157Z,96.89
2024-03-01T23:58:50.548Z,97.60
